sensor_id;sensor_type;location;lat;lon;timestamp;P1;durP1;ratioP1;P2;durP2;ratioP2
75316;SDS011;63913;51.492;10.368;2022-10-26T00:00:21;2.78;;;1.23;;
75316;SDS011;63913;51.492;10.368;2022-10-26T00:02:46;2.97;;;1.47;;
75316;SDS011;63913;51.492;10.368;2022-10-26T00:05:11;2.63;;;1.40;;
75316;SDS011;63913;51.492;10.368;2022-10-26T00:07:37;3.33;;;1.30;;
75316;SDS011;63913;51.492;10.368;2022-10-26T00:10:02;2.60;;;1.23;;
75316;SDS011;63913;51.492;10.368;2022-10-26T00:12:28;2.88;;;1.33;;
75316;SDS011;63913;51.492;10.368;2022-10-26T00:14:53;7.33;;;1.80;;
75316;SDS011;63913;51.492;10.368;2022-10-26T00:17:18;2.37;;;1.57;;
75316;SDS011;63913;51.492;10.368;2022-10-26T00:19:43;2.07;;;1.30;;
75316;SDS011;63913;51.492;10.368;2022-10-26T00:22:09;1.90;;;1.40;;
75316;SDS011;63913;51.492;10.368;2022-10-26T00:24:34;4.50;;;1.63;;
75316;SDS011;63913;51.492;10.368;2022-10-26T00:26:59;3.87;;;1.40;;
75316;SDS011;63913;51.492;10.368;2022-10-26T00:29:25;2.60;;;1.17;;
75316;SDS011;63913;51.492;10.368;2022-10-26T00:31:50;3.28;;;1.20;;
75316;SDS011;63913;51.492;10.368;2022-10-26T00:34:15;2.73;;;1.93;;
75316;SDS011;63913;51.492;10.368;2022-10-26T00:36:40;3.80;;;1.43;;
75316;SDS011;63913;51.492;10.368;2022-10-26T00:39:06;1.43;;;1.10;;
75316;SDS011;63913;51.492;10.368;2022-10-26T00:41:32;6.20;;;1.30;;
75316;SDS011;63913;51.492;10.368;2022-10-26T00:43:59;3.55;;;1.23;;
75316;SDS011;63913;51.492;10.368;2022-10-26T00:49:03;4.78;;;1.42;;
75316;SDS011;63913;51.492;10.368;2022-10-26T00:51:31;2.13;;;1.30;;
75316;SDS011;63913;51.492;10.368;2022-10-26T00:54:02;5.28;;;1.58;;
75316;SDS011;63913;51.492;10.368;2022-10-26T00:56:29;2.83;;;1.45;;
75316;SDS011;63913;51.492;10.368;2022-10-26T00:58:58;3.50;;;1.55;;
75316;SDS011;63913;51.492;10.368;2022-10-26T01:01:26;1.88;;;1.20;;
75316;SDS011;63913;51.492;10.368;2022-10-26T01:03:52;6.72;;;1.70;;
75316;SDS011;63913;51.492;10.368;2022-10-26T01:06:18;6.85;;;1.40;;
75316;SDS011;63913;51.492;10.368;2022-10-26T01:08:44;2.10;;;1.20;;
75316;SDS011;63913;51.492;10.368;2022-10-26T01:11:10;3.97;;;1.48;;
75316;SDS011;63913;51.492;10.368;2022-10-26T01:13:37;1.42;;;1.10;;
75316;SDS011;63913;51.492;10.368;2022-10-26T01:16:08;2.03;;;1.30;;
75316;SDS011;63913;51.492;10.368;2022-10-26T01:26:52;2.55;;;1.10;;
75316;SDS011;63913;51.492;10.368;2022-10-26T01:32:50;3.70;;;1.25;;
75316;SDS011;63913;51.492;10.368;2022-10-26T01:37:57;4.03;;;1.50;;
75316;SDS011;63913;51.492;10.368;2022-10-26T01:40:30;3.85;;;1.90;;
75316;SDS011;63913;51.492;10.368;2022-10-26T01:43:09;5.13;;;1.98;;
75316;SDS011;63913;51.492;10.368;2022-10-26T01:45:38;5.28;;;2.30;;
75316;SDS011;63913;51.492;10.368;2022-10-26T01:48:08;2.85;;;2.05;;
75316;SDS011;63913;51.492;10.368;2022-10-26T01:50:38;2.85;;;2.22;;
75316;SDS011;63913;51.492;10.368;2022-10-26T01:53:10;2.92;;;2.00;;
75316;SDS011;63913;51.492;10.368;2022-10-26T01:58:06;4.97;;;2.57;;
75316;SDS011;63913;51.492;10.368;2022-10-26T02:01:05;3.63;;;2.53;;
75316;SDS011;63913;51.492;10.368;2022-10-26T02:08:52;3.63;;;2.45;;
75316;SDS011;63913;51.492;10.368;2022-10-26T02:17:15;4.32;;;2.15;;
75316;SDS011;63913;51.492;10.368;2022-10-26T02:20:08;4.18;;;2.33;;
75316;SDS011;63913;51.492;10.368;2022-10-26T02:22:43;4.85;;;2.35;;
75316;SDS011;63913;51.492;10.368;2022-10-26T02:25:15;5.50;;;2.50;;
75316;SDS011;63913;51.492;10.368;2022-10-26T02:27:46;4.55;;;2.30;;
75316;SDS011;63913;51.492;10.368;2022-10-26T02:30:17;3.63;;;2.40;;
75316;SDS011;63913;51.492;10.368;2022-10-26T02:32:44;4.20;;;2.20;;
75316;SDS011;63913;51.492;10.368;2022-10-26T02:35:12;3.83;;;2.22;;
75316;SDS011;63913;51.492;10.368;2022-10-26T02:37:39;3.80;;;2.28;;
75316;SDS011;63913;51.492;10.368;2022-10-26T02:40:10;4.82;;;2.35;;
75316;SDS011;63913;51.492;10.368;2022-10-26T02:42:39;3.67;;;2.28;;
75316;SDS011;63913;51.492;10.368;2022-10-26T02:45:08;5.00;;;2.38;;
75316;SDS011;63913;51.492;10.368;2022-10-26T02:47:36;4.20;;;2.38;;
75316;SDS011;63913;51.492;10.368;2022-10-26T02:50:02;4.28;;;2.53;;
75316;SDS011;63913;51.492;10.368;2022-10-26T02:52:44;4.60;;;2.55;;
75316;SDS011;63913;51.492;10.368;2022-10-26T02:55:19;5.65;;;2.65;;
75316;SDS011;63913;51.492;10.368;2022-10-26T02:57:53;6.53;;;3.00;;
75316;SDS011;63913;51.492;10.368;2022-10-26T03:00:24;5.53;;;3.28;;
75316;SDS011;63913;51.492;10.368;2022-10-26T03:02:50;5.85;;;3.10;;
75316;SDS011;63913;51.492;10.368;2022-10-26T03:05:19;3.67;;;2.63;;
75316;SDS011;63913;51.492;10.368;2022-10-26T03:07:47;5.22;;;2.90;;
75316;SDS011;63913;51.492;10.368;2022-10-26T03:10:12;4.37;;;3.00;;
75316;SDS011;63913;51.492;10.368;2022-10-26T03:12:37;6.03;;;3.50;;
75316;SDS011;63913;51.492;10.368;2022-10-26T03:15:03;6.13;;;3.37;;
75316;SDS011;63913;51.492;10.368;2022-10-26T03:17:28;5.97;;;3.78;;
75316;SDS011;63913;51.492;10.368;2022-10-26T03:19:54;7.27;;;3.87;;
75316;SDS011;63913;51.492;10.368;2022-10-26T03:22:20;7.68;;;3.40;;
75316;SDS011;63913;51.492;10.368;2022-10-26T03:24:45;4.93;;;3.10;;
75316;SDS011;63913;51.492;10.368;2022-10-26T03:27:11;5.70;;;3.80;;
75316;SDS011;63913;51.492;10.368;2022-10-26T03:29:36;6.55;;;4.07;;
75316;SDS011;63913;51.492;10.368;2022-10-26T03:32:01;6.67;;;3.70;;
75316;SDS011;63913;51.492;10.368;2022-10-26T03:34:27;7.22;;;3.90;;
75316;SDS011;63913;51.492;10.368;2022-10-26T03:36:52;6.23;;;3.83;;
75316;SDS011;63913;51.492;10.368;2022-10-26T03:39:17;5.50;;;3.33;;
75316;SDS011;63913;51.492;10.368;2022-10-26T03:41:42;6.28;;;4.00;;
75316;SDS011;63913;51.492;10.368;2022-10-26T03:44:11;6.38;;;3.60;;
75316;SDS011;63913;51.492;10.368;2022-10-26T03:46:37;5.15;;;3.63;;
75316;SDS011;63913;51.492;10.368;2022-10-26T03:49:02;5.00;;;3.10;;
75316;SDS011;63913;51.492;10.368;2022-10-26T03:51:27;6.17;;;3.60;;
75316;SDS011;63913;51.492;10.368;2022-10-26T03:53:53;4.65;;;3.05;;
75316;SDS011;63913;51.492;10.368;2022-10-26T03:56:18;4.85;;;3.30;;
75316;SDS011;63913;51.492;10.368;2022-10-26T03:58:43;8.20;;;3.60;;
75316;SDS011;63913;51.492;10.368;2022-10-26T04:01:09;6.17;;;3.37;;
75316;SDS011;63913;51.492;10.368;2022-10-26T04:03:34;6.23;;;3.83;;
75316;SDS011;63913;51.492;10.368;2022-10-26T04:06:00;4.87;;;3.40;;
75316;SDS011;63913;51.492;10.368;2022-10-26T04:08:25;7.47;;;3.40;;
75316;SDS011;63913;51.492;10.368;2022-10-26T04:10:51;4.47;;;3.00;;
75316;SDS011;63913;51.492;10.368;2022-10-26T04:13:16;6.70;;;3.27;;
75316;SDS011;63913;51.492;10.368;2022-10-26T04:15:41;6.10;;;3.53;;
75316;SDS011;63913;51.492;10.368;2022-10-26T04:18:07;4.95;;;3.17;;
75316;SDS011;63913;51.492;10.368;2022-10-26T04:20:33;7.10;;;4.20;;
75316;SDS011;63913;51.492;10.368;2022-10-26T04:23:01;10.40;;;4.93;;
75316;SDS011;63913;51.492;10.368;2022-10-26T04:25:29;4.70;;;3.08;;
75316;SDS011;63913;51.492;10.368;2022-10-26T04:27:56;5.40;;;3.15;;
75316;SDS011;63913;51.492;10.368;2022-10-26T04:30:21;4.40;;;3.13;;
75316;SDS011;63913;51.492;10.368;2022-10-26T04:32:47;6.50;;;3.03;;
75316;SDS011;63913;51.492;10.368;2022-10-26T04:35:12;4.47;;;2.92;;
75316;SDS011;63913;51.492;10.368;2022-10-26T04:37:38;4.97;;;2.70;;
75316;SDS011;63913;51.492;10.368;2022-10-26T04:40:03;4.87;;;3.40;;
75316;SDS011;63913;51.492;10.368;2022-10-26T04:42:29;4.57;;;3.22;;
75316;SDS011;63913;51.492;10.368;2022-10-26T04:45:03;5.38;;;3.38;;
75316;SDS011;63913;51.492;10.368;2022-10-26T04:47:29;6.18;;;3.13;;
75316;SDS011;63913;51.492;10.368;2022-10-26T04:49:54;3.90;;;2.97;;
75316;SDS011;63913;51.492;10.368;2022-10-26T04:52:20;6.17;;;3.17;;
75316;SDS011;63913;51.492;10.368;2022-10-26T04:54:45;6.53;;;3.10;;
75316;SDS011;63913;51.492;10.368;2022-10-26T04:57:10;5.60;;;3.00;;
75316;SDS011;63913;51.492;10.368;2022-10-26T04:59:36;5.13;;;3.20;;
75316;SDS011;63913;51.492;10.368;2022-10-26T05:02:01;4.90;;;2.97;;
75316;SDS011;63913;51.492;10.368;2022-10-26T05:04:26;4.33;;;2.87;;
75316;SDS011;63913;51.492;10.368;2022-10-26T05:06:51;5.53;;;3.60;;
75316;SDS011;63913;51.492;10.368;2022-10-26T05:09:17;5.68;;;3.40;;
75316;SDS011;63913;51.492;10.368;2022-10-26T05:11:43;12.93;;;4.57;;
75316;SDS011;63913;51.492;10.368;2022-10-26T05:14:08;6.95;;;3.58;;
75316;SDS011;63913;51.492;10.368;2022-10-26T05:16:33;4.40;;;2.93;;
75316;SDS011;63913;51.492;10.368;2022-10-26T05:18:59;4.87;;;2.97;;
75316;SDS011;63913;51.492;10.368;2022-10-26T05:21:24;4.60;;;3.23;;
75316;SDS011;63913;51.492;10.368;2022-10-26T05:23:50;5.43;;;3.13;;
75316;SDS011;63913;51.492;10.368;2022-10-26T05:26:19;5.18;;;2.95;;
75316;SDS011;63913;51.492;10.368;2022-10-26T05:28:46;6.55;;;3.33;;
75316;SDS011;63913;51.492;10.368;2022-10-26T05:31:11;6.47;;;3.33;;
75316;SDS011;63913;51.492;10.368;2022-10-26T05:33:37;4.70;;;3.20;;
75316;SDS011;63913;51.492;10.368;2022-10-26T05:36:02;5.32;;;3.10;;
75316;SDS011;63913;51.492;10.368;2022-10-26T05:38:28;6.60;;;3.40;;
75316;SDS011;63913;51.492;10.368;2022-10-26T05:40:53;5.87;;;3.17;;
75316;SDS011;63913;51.492;10.368;2022-10-26T05:43:19;7.47;;;3.72;;
75316;SDS011;63913;51.492;10.368;2022-10-26T05:45:46;8.75;;;4.22;;
75316;SDS011;63913;51.492;10.368;2022-10-26T05:48:14;8.25;;;3.70;;
75316;SDS011;63913;51.492;10.368;2022-10-26T05:50:39;5.97;;;3.27;;
75316;SDS011;63913;51.492;10.368;2022-10-26T05:53:04;8.27;;;3.65;;
75316;SDS011;63913;51.492;10.368;2022-10-26T05:55:30;4.77;;;3.00;;
75316;SDS011;63913;51.492;10.368;2022-10-26T05:57:55;5.18;;;3.00;;
75316;SDS011;63913;51.492;10.368;2022-10-26T06:00:22;6.38;;;3.17;;
75316;SDS011;63913;51.492;10.368;2022-10-26T06:05:49;5.18;;;3.00;;
75316;SDS011;63913;51.492;10.368;2022-10-26T06:08:20;6.20;;;2.88;;
75316;SDS011;63913;51.492;10.368;2022-10-26T06:10:47;7.07;;;2.72;;
75316;SDS011;63913;51.492;10.368;2022-10-26T06:13:12;6.53;;;3.20;;
75316;SDS011;63913;51.492;10.368;2022-10-26T06:16:01;4.35;;;2.58;;
75316;SDS011;63913;51.492;10.368;2022-10-26T06:27:51;6.07;;;2.88;;
75316;SDS011;63913;51.492;10.368;2022-10-26T06:30:39;4.20;;;2.42;;
75316;SDS011;63913;51.492;10.368;2022-10-26T06:33:06;5.13;;;2.60;;
75316;SDS011;63913;51.492;10.368;2022-10-26T06:38:08;4.68;;;2.53;;
75316;SDS011;63913;51.492;10.368;2022-10-26T06:40:39;4.70;;;3.30;;
75316;SDS011;63913;51.492;10.368;2022-10-26T06:45:57;4.68;;;2.85;;
75316;SDS011;63913;51.492;10.368;2022-10-26T06:48:29;6.65;;;3.40;;
75316;SDS011;63913;51.492;10.368;2022-10-26T06:51:06;7.20;;;3.70;;
75316;SDS011;63913;51.492;10.368;2022-10-26T06:53:42;7.45;;;3.38;;
75316;SDS011;63913;51.492;10.368;2022-10-26T06:56:19;8.68;;;3.97;;
75316;SDS011;63913;51.492;10.368;2022-10-26T06:58:45;7.75;;;2.90;;
75316;SDS011;63913;51.492;10.368;2022-10-26T07:01:11;7.57;;;3.38;;
75316;SDS011;63913;51.492;10.368;2022-10-26T07:03:37;4.57;;;2.28;;
75316;SDS011;63913;51.492;10.368;2022-10-26T07:06:03;4.32;;;2.47;;
75316;SDS011;63913;51.492;10.368;2022-10-26T07:08:29;4.22;;;2.50;;
75316;SDS011;63913;51.492;10.368;2022-10-26T07:10:55;3.40;;;2.05;;
75316;SDS011;63913;51.492;10.368;2022-10-26T07:13:21;3.23;;;2.07;;
75316;SDS011;63913;51.492;10.368;2022-10-26T07:15:46;7.50;;;3.57;;
75316;SDS011;63913;51.492;10.368;2022-10-26T07:18:12;7.70;;;2.95;;
75316;SDS011;63913;51.492;10.368;2022-10-26T07:20:38;4.35;;;2.10;;
75316;SDS011;63913;51.492;10.368;2022-10-26T07:23:05;3.72;;;1.70;;
75316;SDS011;63913;51.492;10.368;2022-10-26T07:25:31;6.95;;;1.60;;
75316;SDS011;63913;51.492;10.368;2022-10-26T07:27:58;4.47;;;1.90;;
75316;SDS011;63913;51.492;10.368;2022-10-26T07:30:24;5.25;;;1.90;;
75316;SDS011;63913;51.492;10.368;2022-10-26T07:32:57;3.55;;;1.73;;
75316;SDS011;63913;51.492;10.368;2022-10-26T07:35:31;3.50;;;1.85;;
75316;SDS011;63913;51.492;10.368;2022-10-26T07:37:57;4.80;;;2.17;;
75316;SDS011;63913;51.492;10.368;2022-10-26T07:40:23;3.33;;;1.80;;
75316;SDS011;63913;51.492;10.368;2022-10-26T07:42:49;6.72;;;1.90;;
75316;SDS011;63913;51.492;10.368;2022-10-26T07:45:14;5.03;;;2.42;;
75316;SDS011;63913;51.492;10.368;2022-10-26T07:47:40;3.67;;;1.93;;
75316;SDS011;63913;51.492;10.368;2022-10-26T07:50:05;3.13;;;1.93;;
75316;SDS011;63913;51.492;10.368;2022-10-26T07:52:32;2.80;;;2.33;;
75316;SDS011;63913;51.492;10.368;2022-10-26T07:55:01;2.80;;;1.77;;
75316;SDS011;63913;51.492;10.368;2022-10-26T07:57:26;4.97;;;2.10;;
75316;SDS011;63913;51.492;10.368;2022-10-26T07:59:51;4.10;;;2.07;;
75316;SDS011;63913;51.492;10.368;2022-10-26T08:02:16;9.83;;;2.80;;
75316;SDS011;63913;51.492;10.368;2022-10-26T08:04:43;2.20;;;1.77;;
75316;SDS011;63913;51.492;10.368;2022-10-26T08:07:08;4.10;;;2.20;;
75316;SDS011;63913;51.492;10.368;2022-10-26T08:09:33;3.40;;;2.03;;
75316;SDS011;63913;51.492;10.368;2022-10-26T08:11:58;4.03;;;2.33;;
75316;SDS011;63913;51.492;10.368;2022-10-26T08:14:24;4.17;;;2.23;;
75316;SDS011;63913;51.492;10.368;2022-10-26T08:16:49;3.23;;;2.40;;
75316;SDS011;63913;51.492;10.368;2022-10-26T08:19:16;3.35;;;2.53;;
75316;SDS011;63913;51.492;10.368;2022-10-26T08:21:42;4.80;;;2.05;;
75316;SDS011;63913;51.492;10.368;2022-10-26T08:24:07;6.47;;;2.20;;
75316;SDS011;63913;51.492;10.368;2022-10-26T08:26:32;4.40;;;2.70;;
75316;SDS011;63913;51.492;10.368;2022-10-26T08:28:58;6.45;;;2.58;;
75316;SDS011;63913;51.492;10.368;2022-10-26T08:31:23;3.57;;;2.10;;
75316;SDS011;63913;51.492;10.368;2022-10-26T08:33:49;2.70;;;2.13;;
75316;SDS011;63913;51.492;10.368;2022-10-26T08:36:14;2.72;;;2.20;;
75316;SDS011;63913;51.492;10.368;2022-10-26T08:38:46;4.25;;;2.22;;
75316;SDS011;63913;51.492;10.368;2022-10-26T08:41:12;3.47;;;2.22;;
75316;SDS011;63913;51.492;10.368;2022-10-26T08:43:48;3.10;;;1.85;;
75316;SDS011;63913;51.492;10.368;2022-10-26T08:46:23;4.72;;;2.25;;
75316;SDS011;63913;51.492;10.368;2022-10-26T08:48:58;2.80;;;1.70;;
75316;SDS011;63913;51.492;10.368;2022-10-26T08:51:43;4.97;;;2.08;;
75316;SDS011;63913;51.492;10.368;2022-10-26T08:54:14;4.43;;;1.88;;
75316;SDS011;63913;51.492;10.368;2022-10-26T08:57:01;4.05;;;1.70;;
75316;SDS011;63913;51.492;10.368;2022-10-26T08:59:51;4.57;;;1.75;;
75316;SDS011;63913;51.492;10.368;2022-10-26T09:02:21;8.00;;;2.00;;
75316;SDS011;63913;51.492;10.368;2022-10-26T09:04:48;3.53;;;1.80;;
75316;SDS011;63913;51.492;10.368;2022-10-26T09:12:38;3.33;;;2.13;;
75316;SDS011;63913;51.492;10.368;2022-10-26T09:17:39;5.43;;;2.97;;
75316;SDS011;63913;51.492;10.368;2022-10-26T09:26:04;4.25;;;2.33;;
75316;SDS011;63913;51.492;10.368;2022-10-26T09:28:54;5.95;;;2.83;;
75316;SDS011;63913;51.492;10.368;2022-10-26T09:31:25;6.45;;;2.50;;
75316;SDS011;63913;51.492;10.368;2022-10-26T09:33:50;4.68;;;2.40;;
75316;SDS011;63913;51.492;10.368;2022-10-26T09:36:19;6.82;;;3.00;;
75316;SDS011;63913;51.492;10.368;2022-10-26T09:38:46;5.25;;;2.42;;
75316;SDS011;63913;51.492;10.368;2022-10-26T09:41:35;5.07;;;2.42;;
75316;SDS011;63913;51.492;10.368;2022-10-26T09:44:05;4.47;;;2.30;;
75316;SDS011;63913;51.492;10.368;2022-10-26T09:47:08;5.68;;;2.67;;
75316;SDS011;63913;51.492;10.368;2022-10-26T09:49:44;4.00;;;2.28;;
75316;SDS011;63913;51.492;10.368;2022-10-26T09:52:14;6.65;;;2.70;;
75316;SDS011;63913;51.492;10.368;2022-10-26T09:54:40;3.85;;;2.20;;
75316;SDS011;63913;51.492;10.368;2022-10-26T09:57:06;5.40;;;2.30;;
75316;SDS011;63913;51.492;10.368;2022-10-26T09:59:32;4.28;;;1.65;;
75316;SDS011;63913;51.492;10.368;2022-10-26T10:02:05;6.93;;;2.13;;
75316;SDS011;63913;51.492;10.368;2022-10-26T10:05:00;4.35;;;1.85;;
75316;SDS011;63913;51.492;10.368;2022-10-26T10:07:25;1.98;;;1.48;;
75316;SDS011;63913;51.492;10.368;2022-10-26T10:10:07;2.53;;;2.00;;
75316;SDS011;63913;51.492;10.368;2022-10-26T10:12:39;4.00;;;1.80;;
75316;SDS011;63913;51.492;10.368;2022-10-26T10:15:12;1.55;;;1.17;;
75316;SDS011;63913;51.492;10.368;2022-10-26T10:17:45;3.60;;;1.60;;
75316;SDS011;63913;51.492;10.368;2022-10-26T10:20:18;3.70;;;1.50;;
75316;SDS011;63913;51.492;10.368;2022-10-26T10:22:59;4.38;;;1.50;;
75316;SDS011;63913;51.492;10.368;2022-10-26T10:25:33;4.15;;;1.30;;
75316;SDS011;63913;51.492;10.368;2022-10-26T10:28:00;2.08;;;1.50;;
75316;SDS011;63913;51.492;10.368;2022-10-26T10:30:28;1.70;;;1.20;;
75316;SDS011;63913;51.492;10.368;2022-10-26T10:33:05;2.80;;;1.48;;
75316;SDS011;63913;51.492;10.368;2022-10-26T10:35:35;4.88;;;1.25;;
75316;SDS011;63913;51.492;10.368;2022-10-26T10:38:04;3.47;;;1.15;;
75316;SDS011;63913;51.492;10.368;2022-10-26T10:40:30;3.67;;;2.00;;
75316;SDS011;63913;51.492;10.368;2022-10-26T10:43:03;3.33;;;1.67;;
75316;SDS011;63913;51.492;10.368;2022-10-26T10:45:34;4.45;;;1.70;;
75316;SDS011;63913;51.492;10.368;2022-10-26T10:48:04;4.03;;;1.98;;
75316;SDS011;63913;51.492;10.368;2022-10-26T10:50:50;2.88;;;2.00;;
75316;SDS011;63913;51.492;10.368;2022-10-26T10:56:00;3.05;;;1.77;;
75316;SDS011;63913;51.492;10.368;2022-10-26T10:58:46;3.58;;;1.67;;
75316;SDS011;63913;51.492;10.368;2022-10-26T11:01:15;5.75;;;2.35;;
75316;SDS011;63913;51.492;10.368;2022-10-26T11:03:48;5.53;;;2.10;;
75316;SDS011;63913;51.492;10.368;2022-10-26T11:06:27;1.88;;;1.45;;
75316;SDS011;63913;51.492;10.368;2022-10-26T11:08:56;4.95;;;1.45;;
75316;SDS011;63913;51.492;10.368;2022-10-26T11:14:26;4.60;;;1.88;;
75316;SDS011;63913;51.492;10.368;2022-10-26T11:21:53;1.65;;;1.50;;
75316;SDS011;63913;51.492;10.368;2022-10-26T11:24:26;3.80;;;1.25;;
75316;SDS011;63913;51.492;10.368;2022-10-26T11:29:53;2.33;;;1.48;;
75316;SDS011;63913;51.492;10.368;2022-10-26T11:43:42;2.85;;;1.63;;
75316;SDS011;63913;51.492;10.368;2022-10-26T11:46:17;2.50;;;1.88;;
75316;SDS011;63913;51.492;10.368;2022-10-26T11:51:42;5.30;;;2.00;;
75316;SDS011;63913;51.492;10.368;2022-10-26T11:54:30;6.15;;;1.95;;
75316;SDS011;63913;51.492;10.368;2022-10-26T11:57:01;3.08;;;1.70;;
75316;SDS011;63913;51.492;10.368;2022-10-26T11:59:29;4.75;;;1.63;;
75316;SDS011;63913;51.492;10.368;2022-10-26T12:01:58;6.57;;;3.67;;
75316;SDS011;63913;51.492;10.368;2022-10-26T12:04:29;2.70;;;1.55;;
75316;SDS011;63913;51.492;10.368;2022-10-26T12:06:57;5.25;;;1.88;;
75316;SDS011;63913;51.492;10.368;2022-10-26T12:09:26;5.85;;;1.60;;
75316;SDS011;63913;51.492;10.368;2022-10-26T12:15:04;2.78;;;1.40;;
75316;SDS011;63913;51.492;10.368;2022-10-26T12:17:38;2.88;;;1.10;;
75316;SDS011;63913;51.492;10.368;2022-10-26T12:23:10;1.95;;;1.25;;
75316;SDS011;63913;51.492;10.368;2022-10-26T12:25:36;5.18;;;2.20;;
75316;SDS011;63913;51.492;10.368;2022-10-26T12:28:02;2.75;;;1.30;;
75316;SDS011;63913;51.492;10.368;2022-10-26T12:30:32;1.38;;;1.27;;
75316;SDS011;63913;51.492;10.368;2022-10-26T12:48:44;2.53;;;1.13;;
75316;SDS011;63913;51.492;10.368;2022-10-26T12:56:55;3.85;;;1.45;;
75316;SDS011;63913;51.492;10.368;2022-10-26T12:59:41;3.10;;;1.38;;
75316;SDS011;63913;51.492;10.368;2022-10-26T13:02:30;2.17;;;1.10;;
75316;SDS011;63913;51.492;10.368;2022-10-26T13:07:48;1.73;;;1.23;;
75316;SDS011;63913;51.492;10.368;2022-10-26T13:10:19;2.00;;;1.27;;
75316;SDS011;63913;51.492;10.368;2022-10-26T13:15:25;2.23;;;1.40;;
75316;SDS011;63913;51.492;10.368;2022-10-26T13:17:57;5.15;;;2.10;;
75316;SDS011;63913;51.492;10.368;2022-10-26T13:20:27;2.38;;;1.60;;
75316;SDS011;63913;51.492;10.368;2022-10-26T13:22:54;5.65;;;2.20;;
75316;SDS011;63913;51.492;10.368;2022-10-26T13:25:27;1.92;;;1.67;;
75316;SDS011;63913;51.492;10.368;2022-10-26T13:27:58;5.22;;;1.88;;
75316;SDS011;63913;51.492;10.368;2022-10-26T13:32:57;1.60;;;1.50;;
75316;SDS011;63913;51.492;10.368;2022-10-26T13:35:24;4.60;;;1.90;;
75316;SDS011;63913;51.492;10.368;2022-10-26T13:37:52;2.78;;;1.65;;
75316;SDS011;63913;51.492;10.368;2022-10-26T13:40:22;3.70;;;1.90;;
75316;SDS011;63913;51.492;10.368;2022-10-26T13:42:52;6.32;;;1.70;;
75316;SDS011;63913;51.492;10.368;2022-10-26T13:45:22;3.30;;;1.48;;
75316;SDS011;63913;51.492;10.368;2022-10-26T13:47:54;3.97;;;1.30;;
75316;SDS011;63913;51.492;10.368;2022-10-26T13:50:45;3.13;;;1.85;;
75316;SDS011;63913;51.492;10.368;2022-10-26T13:55:52;2.60;;;1.77;;
75316;SDS011;63913;51.492;10.368;2022-10-26T14:03:36;4.78;;;1.73;;
75316;SDS011;63913;51.492;10.368;2022-10-26T14:06:05;1.90;;;1.30;;
75316;SDS011;63913;51.492;10.368;2022-10-26T14:08:39;2.38;;;1.42;;
75316;SDS011;63913;51.492;10.368;2022-10-26T14:11:06;5.70;;;1.70;;
75316;SDS011;63913;51.492;10.368;2022-10-26T14:13:36;2.20;;;1.40;;
75316;SDS011;63913;51.492;10.368;2022-10-26T14:16:05;2.03;;;1.50;;
75316;SDS011;63913;51.492;10.368;2022-10-26T14:23:32;2.17;;;1.30;;
75316;SDS011;63913;51.492;10.368;2022-10-26T14:26:16;2.22;;;1.48;;
75316;SDS011;63913;51.492;10.368;2022-10-26T14:28:45;2.65;;;1.55;;
75316;SDS011;63913;51.492;10.368;2022-10-26T14:33:56;3.42;;;2.10;;
75316;SDS011;63913;51.492;10.368;2022-10-26T14:36:39;5.68;;;4.22;;
75316;SDS011;63913;51.492;10.368;2022-10-26T14:39:28;4.93;;;2.53;;
75316;SDS011;63913;51.492;10.368;2022-10-26T14:42:48;7.07;;;3.75;;
75316;SDS011;63913;51.492;10.368;2022-10-26T14:45:03;3.80;;;1.80;;
75316;SDS011;63913;51.492;10.368;2022-10-26T14:47:30;3.63;;;1.77;;
75316;SDS011;63913;51.492;10.368;2022-10-26T14:49:58;6.75;;;2.40;;
75316;SDS011;63913;51.492;10.368;2022-10-26T14:52:28;3.65;;;1.65;;
75316;SDS011;63913;51.492;10.368;2022-10-26T14:55:17;3.08;;;1.77;;
75316;SDS011;63913;51.492;10.368;2022-10-26T14:57:42;4.60;;;1.52;;
75316;SDS011;63913;51.492;10.368;2022-10-26T15:00:17;5.82;;;2.60;;
75316;SDS011;63913;51.492;10.368;2022-10-26T15:02:52;4.43;;;2.50;;
75316;SDS011;63913;51.492;10.368;2022-10-26T15:07:48;7.47;;;2.50;;
75316;SDS011;63913;51.492;10.368;2022-10-26T15:13:23;3.33;;;1.48;;
75316;SDS011;63913;51.492;10.368;2022-10-26T15:15:53;4.82;;;1.40;;
75316;SDS011;63913;51.492;10.368;2022-10-26T15:20:51;2.95;;;1.35;;
75316;SDS011;63913;51.492;10.368;2022-10-26T15:23:17;2.05;;;1.00;;
75316;SDS011;63913;51.492;10.368;2022-10-26T15:25:54;1.55;;;1.13;;
75316;SDS011;63913;51.492;10.368;2022-10-26T15:31:01;2.72;;;1.27;;
75316;SDS011;63913;51.492;10.368;2022-10-26T15:33:36;3.55;;;1.33;;
75316;SDS011;63913;51.492;10.368;2022-10-26T15:38:31;1.70;;;1.60;;
75316;SDS011;63913;51.492;10.368;2022-10-26T15:40:57;3.40;;;1.38;;
75316;SDS011;63913;51.492;10.368;2022-10-26T15:43:22;4.75;;;1.48;;
75316;SDS011;63913;51.492;10.368;2022-10-26T15:45:48;3.47;;;1.37;;
75316;SDS011;63913;51.492;10.368;2022-10-26T15:48:25;3.92;;;1.48;;
75316;SDS011;63913;51.492;10.368;2022-10-26T15:50:53;5.68;;;1.95;;
75316;SDS011;63913;51.492;10.368;2022-10-26T15:53:20;2.70;;;1.60;;
75316;SDS011;63913;51.492;10.368;2022-10-26T15:55:47;6.22;;;1.25;;
75316;SDS011;63913;51.492;10.368;2022-10-26T15:58:15;3.63;;;1.60;;
75316;SDS011;63913;51.492;10.368;2022-10-26T16:00:41;4.28;;;1.50;;
75316;SDS011;63913;51.492;10.368;2022-10-26T16:03:07;3.45;;;1.20;;
75316;SDS011;63913;51.492;10.368;2022-10-26T16:05:37;5.25;;;1.52;;
75316;SDS011;63913;51.492;10.368;2022-10-26T16:08:03;3.33;;;2.17;;
75316;SDS011;63913;51.492;10.368;2022-10-26T16:10:28;1.35;;;1.20;;
75316;SDS011;63913;51.492;10.368;2022-10-26T16:12:53;5.30;;;1.55;;
75316;SDS011;63913;51.492;10.368;2022-10-26T16:15:20;2.13;;;1.20;;
75316;SDS011;63913;51.492;10.368;2022-10-26T16:17:48;2.97;;;1.30;;
75316;SDS011;63913;51.492;10.368;2022-10-26T16:20:16;7.32;;;1.63;;
75316;SDS011;63913;51.492;10.368;2022-10-26T16:22:43;2.97;;;1.42;;
75316;SDS011;63913;51.492;10.368;2022-10-26T16:25:12;3.55;;;1.70;;
75316;SDS011;63913;51.492;10.368;2022-10-26T16:27:38;4.05;;;1.48;;
75316;SDS011;63913;51.492;10.368;2022-10-26T16:30:04;2.28;;;1.50;;
75316;SDS011;63913;51.492;10.368;2022-10-26T16:32:30;2.70;;;1.45;;
75316;SDS011;63913;51.492;10.368;2022-10-26T16:34:55;4.73;;;1.53;;
75316;SDS011;63913;51.492;10.368;2022-10-26T16:37:20;1.87;;;1.40;;
75316;SDS011;63913;51.492;10.368;2022-10-26T16:39:46;4.80;;;1.30;;
75316;SDS011;63913;51.492;10.368;2022-10-26T16:42:11;3.43;;;1.80;;
75316;SDS011;63913;51.492;10.368;2022-10-26T16:44:36;2.90;;;2.13;;
75316;SDS011;63913;51.492;10.368;2022-10-26T16:47:02;5.07;;;1.98;;
75316;SDS011;63913;51.492;10.368;2022-10-26T16:49:27;4.55;;;2.10;;
75316;SDS011;63913;51.492;10.368;2022-10-26T16:51:52;2.97;;;1.47;;
75316;SDS011;63913;51.492;10.368;2022-10-26T16:54:18;3.67;;;1.83;;
75316;SDS011;63913;51.492;10.368;2022-10-26T16:56:43;3.63;;;1.70;;
75316;SDS011;63913;51.492;10.368;2022-10-26T16:59:08;2.40;;;1.40;;
75316;SDS011;63913;51.492;10.368;2022-10-26T17:01:34;3.42;;;1.65;;
75316;SDS011;63913;51.492;10.368;2022-10-26T17:03:59;5.13;;;1.58;;
75316;SDS011;63913;51.492;10.368;2022-10-26T17:06:25;3.58;;;1.40;;
75316;SDS011;63913;51.492;10.368;2022-10-26T17:08:51;2.42;;;1.67;;
75316;SDS011;63913;51.492;10.368;2022-10-26T17:11:18;3.50;;;1.60;;
75316;SDS011;63913;51.492;10.368;2022-10-26T17:13:44;2.78;;;1.67;;
75316;SDS011;63913;51.492;10.368;2022-10-26T17:16:17;3.88;;;1.85;;
75316;SDS011;63913;51.492;10.368;2022-10-26T17:18:44;7.93;;;3.17;;